createdAt,value
2023-05-28T00:08:45.537Z,12.3
2023-05-28T00:18:45.571Z,12.2
2023-05-28T00:28:45.369Z,12.2
2023-05-28T00:38:45.949Z,12.1
2023-05-28T00:48:45.795Z,11.9
2023-05-28T00:58:45.610Z,11.7
2023-05-28T01:08:45.722Z,11.6
2023-05-28T01:18:46.105Z,11.5
2023-05-28T01:28:46.040Z,11.4
2023-05-28T01:38:45.773Z,11.2
2023-05-28T01:48:45.755Z,11.0
2023-05-28T01:58:45.511Z,10.9
2023-05-28T02:08:45.675Z,10.9
2023-05-28T02:18:45.636Z,10.9
2023-05-28T02:28:47.040Z,10.8
2023-05-28T02:38:46.338Z,10.8
2023-05-28T02:48:46.414Z,10.7
2023-05-28T02:58:46.058Z,10.6
2023-05-28T03:08:45.590Z,10.5
2023-05-28T03:18:45.730Z,10.4
2023-05-28T03:28:45.788Z,10.4
2023-05-28T03:38:45.740Z,10.4
2023-05-28T03:48:46.014Z,10.3
2023-05-28T03:58:46.241Z,10.4
2023-05-28T04:08:45.836Z,10.4
2023-05-28T04:18:45.688Z,10.5
2023-05-28T04:28:45.703Z,10.4
2023-05-28T04:38:45.605Z,10.4
2023-05-28T04:48:45.786Z,10.5
2023-05-28T04:58:45.753Z,10.7
2023-05-28T05:08:47.190Z,11.1
2023-05-28T05:18:45.732Z,11.5
2023-05-28T05:28:45.763Z,11.8
2023-05-28T05:38:45.673Z,12.0
2023-05-28T05:48:45.832Z,12.0
2023-05-28T05:58:45.950Z,12.0
2023-05-28T06:08:46.649Z,11.9
2023-05-28T06:18:45.643Z,11.9
2023-05-28T06:28:45.688Z,12.1
2023-05-28T06:38:45.936Z,12.4
2023-05-28T06:48:45.807Z,12.9
2023-05-28T06:58:45.936Z,13.6
2023-05-28T07:08:45.693Z,14.3
2023-05-28T07:18:46.054Z,14.7
2023-05-28T07:28:46.134Z,15.0
2023-05-28T07:38:46.190Z,15.4
2023-05-28T07:48:46.076Z,15.7
2023-05-28T07:58:45.578Z,16.2
2023-05-28T08:08:45.976Z,16.6
2023-05-28T08:18:46.380Z,17.1
2023-05-28T08:28:46.237Z,17.4
2023-05-28T08:38:46.101Z,18.1
2023-05-28T08:48:45.867Z,18.0
2023-05-28T08:58:45.706Z,18.5
2023-05-28T09:08:46.149Z,18.6
2023-05-28T09:18:45.712Z,19.0
2023-05-28T09:28:45.908Z,19.6
2023-05-28T09:38:45.928Z,20.6
2023-05-28T09:48:45.930Z,20.8
2023-05-28T09:58:46.197Z,21.0
2023-05-28T10:08:46.155Z,21.5
2023-05-28T10:18:45.813Z,21.6
2023-05-28T10:28:45.752Z,21.8
2023-05-28T10:38:45.750Z,22.1
2023-05-28T10:48:45.843Z,22.5
2023-05-28T10:58:45.825Z,22.4
2023-05-28T11:08:45.960Z,22.8
2023-05-28T11:18:46.299Z,23.1
2023-05-28T11:28:45.918Z,23.1
2023-05-28T11:38:46.142Z,23.2
2023-05-28T11:48:45.998Z,23.0
2023-05-28T11:58:45.971Z,22.8
2023-05-28T12:08:45.676Z,23.1
2023-05-28T12:18:45.812Z,23.7
2023-05-28T12:28:45.945Z,23.5
2023-05-28T12:38:45.698Z,23.4
2023-05-28T12:48:45.987Z,23.3
2023-05-28T12:58:46.091Z,24.1
2023-05-28T13:08:46.032Z,23.9
2023-05-28T13:18:46.290Z,23.8
2023-05-28T13:28:45.905Z,24.0
2023-05-28T13:38:45.872Z,23.9
2023-05-28T13:48:45.935Z,23.3
2023-05-28T13:58:46.115Z,23.3
2023-05-28T14:08:45.913Z,23.7
2023-05-28T14:18:46.108Z,23.6
2023-05-28T14:28:46.371Z,23.3
2023-05-28T14:38:45.899Z,23.4
2023-05-28T14:48:45.926Z,23.5
2023-05-28T14:58:45.977Z,23.5
2023-05-28T15:08:45.944Z,22.9
2023-05-28T15:18:45.876Z,22.9
2023-05-28T15:28:45.872Z,22.7
2023-05-28T15:38:46.016Z,22.7
2023-05-28T15:48:46.033Z,22.9
2023-05-28T15:58:46.167Z,22.6
2023-05-28T16:08:46.168Z,22.5
2023-05-28T16:18:45.793Z,22.5
2023-05-28T16:28:46.283Z,22.2
2023-05-28T16:38:45.868Z,22.2
2023-05-28T16:48:45.859Z,21.6
2023-05-28T16:58:45.990Z,21.0
2023-05-28T17:08:45.698Z,20.8
2023-05-28T17:18:46.538Z,20.3
2023-05-28T17:28:45.932Z,20.0
2023-05-28T17:38:47.019Z,19.8
2023-05-28T17:48:46.096Z,19.4
2023-05-28T17:58:45.711Z,18.9
2023-05-28T18:08:46.025Z,18.8
2023-05-28T18:18:45.846Z,18.3
2023-05-28T18:28:45.789Z,18.0
2023-05-28T18:38:46.496Z,17.5
2023-05-28T18:48:45.696Z,17.2
2023-05-28T18:58:45.862Z,16.8
2023-05-28T19:08:46.265Z,16.6
2023-05-28T19:18:45.891Z,16.2
2023-05-28T19:28:45.992Z,16.0
2023-05-28T19:38:46.145Z,15.6
2023-05-28T19:48:45.774Z,15.4
2023-05-28T19:58:45.892Z,15.0
2023-05-28T20:08:45.916Z,14.8
2023-05-28T20:18:45.998Z,14.5
2023-05-28T20:28:45.857Z,14.3
2023-05-28T20:38:45.873Z,13.9
2023-05-28T20:48:45.761Z,13.6
2023-05-28T20:58:45.924Z,13.3
2023-05-28T21:08:46.151Z,13.1
2023-05-28T21:18:45.755Z,12.9
2023-05-28T21:28:45.731Z,12.7
2023-05-28T21:38:46.005Z,12.6
2023-05-28T21:48:46.060Z,12.3
2023-05-28T21:58:45.869Z,12.1
2023-05-28T22:08:46.455Z,11.9
2023-05-28T22:18:45.853Z,11.7
2023-05-28T22:28:57.832Z,11.6
2023-05-28T22:38:46.034Z,11.4
2023-05-28T22:48:45.761Z,11.3
2023-05-28T22:58:46.044Z,11.1
2023-05-28T23:08:47.704Z,11.0
2023-05-28T23:18:46.270Z,10.8
2023-05-28T23:28:47.640Z,10.7
2023-05-28T23:38:45.980Z,10.6
2023-05-28T23:48:46.716Z,10.5
2023-05-28T23:58:46.676Z,10.4
